Time,TemperatureF,DewpointF,PressureIn,WindDirection,WindDirectionDegrees,WindSpeedMPH,WindSpeedGustMPH,Humidity,HourlyPrecipIn,Conditions,Clouds,dailyrainin,SoftwareType,DateUTC
2013-06-14 00:00:00,55.4,50.0,29.81,West,270,1.0,0.0,82,0.00,,CLR,-99.99,VWS V14.01,2013-06-14 04:00:00,
2013-06-14 00:01:00,55.4,50.0,29.81,West,270,1.0,0.0,82,0.00,,CLR,-99.99,VWS V14.01,2013-06-14 04:01:00,
2013-06-14 00:02:00,55.4,50.0,29.81,West,270,1.0,0.0,82,0.00,,CLR,-99.99,VWS V14.01,2013-06-14 04:02:00,
2013-06-14 00:07:00,55.2,49.8,29.81,West,270,1.0,0.0,82,0.00,,CLR,-99.99,VWS V14.01,2013-06-14 04:07:00,
2013-06-14 00:09:00,55.2,49.8,29.81,West,270,1.0,0.0,82,0.00,,CLR,-99.99,VWS V14.01,2013-06-14 04:09:00,
2013-06-14 00:12:00,55.0,49.6,29.81,West,270,1.0,0.0,82,0.00,,CLR,-99.99,VWS V14.01,2013-06-14 04:12:00,
2013-06-14 00:18:00,55.0,49.6,29.81,West,270,1.0,0.0,82,0.00,,CLR,-99.99,VWS V14.01,2013-06-14 04:18:00,
2013-06-14 00:24:00,55.0,49.6,29.81,West,270,1.0,0.0,82,0.00,,CLR,-99.99,VWS V14.01,2013-06-14 04:24:00,
2013-06-14 00:30:00,54.6,49.2,29.81,West,270,1.0,0.0,82,0.00,,CLR,-99.99,VWS V14.01,2013-06-14 04:30:00,
2013-06-14 00:35:00,54.5,49.5,29.81,West,270,1.0,0.0,83,0.00,,CLR,-99.99,VWS V14.01,2013-06-14 04:35:00,
2013-06-14 00:40:00,54.5,49.5,29.81,West,270,1.0,0.0,83,0.00,,CLR,-99.99,VWS V14.01,2013-06-14 04:40:00,
2013-06-14 00:45:00,54.5,49.5,29.81,West,270,1.0,0.0,83,0.00,,CLR,-99.99,VWS V14.01,2013-06-14 04:45:00,
2013-06-14 00:50:00,54.3,49.3,29.81,West,270,1.0,0.0,83,0.00,,CLR,-99.99,VWS V14.01,2013-06-14 04:50:00,
2013-06-14 00:55:00,54.3,49.3,29.81,West,270,1.0,0.0,83,0.00,,CLR,-99.99,VWS V14.01,2013-06-14 04:55:00,
2013-06-14 01:00:00,54.1,49.4,29.80,West,270,1.0,0.0,84,0.00,,CLR,-99.99,VWS V14.01,2013-06-14 05:00:00,
2013-06-14 01:05:00,54.1,49.4,29.80,West,270,1.0,0.0,84,0.00,,CLR,-99.99,VWS V14.01,2013-06-14 05:05:00,
2013-06-14 01:11:00,53.9,49.2,29.80,West,270,1.0,0.0,84,0.00,,CLR,-99.99,VWS V14.01,2013-06-14 05:11:00,
2013-06-14 01:17:00,53.7,49.0,29.80,West,270,1.0,0.0,84,0.00,,CLR,-99.99,VWS V14.01,2013-06-14 05:17:00,
2013-06-14 01:23:00,53.4,48.7,29.80,West,270,1.0,0.0,84,0.00,,CLR,-99.99,VWS V14.01,2013-06-14 05:23:00,
2013-06-14 01:29:00,53.4,48.7,29.80,West,270,1.0,0.0,84,0.00,,CLR,-99.99,VWS V14.01,2013-06-14 05:29:00,
2013-06-14 01:35:00,53.4,48.7,29.79,West,270,1.0,0.0,84,0.00,,CLR,-99.99,VWS V14.01,2013-06-14 05:35:00,
2013-06-14 01:40:00,53.4,48.7,29.79,West,270,1.0,0.0,84,0.00,,CLR,-99.99,VWS V14.01,2013-06-14 05:40:00,
2013-06-14 01:45:00,53.4,48.7,29.80,West,270,1.0,0.0,84,0.00,,CLR,-99.99,VWS V14.01,2013-06-14 05:45:00,
2013-06-14 01:50:00,53.2,48.8,29.80,West,270,1.0,0.0,85,0.00,,CLR,-99.99,VWS V14.01,2013-06-14 05:50:00,
2013-06-14 01:55:00,53.2,48.8,29.80,West,270,1.0,0.0,85,0.00,,CLR,-99.99,VWS V14.01,2013-06-14 05:55:00,
2013-06-14 02:00:00,53.2,48.8,29.79,West,270,1.0,0.0,85,0.00,,CLR,-99.99,VWS V14.01,2013-06-14 06:00:00,
2013-06-14 02:06:00,53.2,49.1,29.79,West,270,1.0,0.0,86,0.00,,CLR,-99.99,VWS V14.01,2013-06-14 06:06:00,
2013-06-14 02:12:00,53.0,48.9,29.79,West,270,1.0,0.0,86,0.00,,CLR,-99.99,VWS V14.01,2013-06-14 06:12:00,
2013-06-14 02:18:00,52.8,48.7,29.79,West,270,1.0,0.0,86,0.00,,CLR,-99.99,VWS V14.01,2013-06-14 06:18:00,
2013-06-14 02:24:00,52.8,48.7,29.79,West,270,1.0,0.0,86,0.00,,CLR,-99.99,VWS V14.01,2013-06-14 06:24:00,
2013-06-14 02:30:00,52.7,48.6,29.79,West,270,1.0,0.0,86,0.00,,CLR,-99.99,VWS V14.01,2013-06-14 06:30:00,
2013-06-14 02:35:00,52.7,48.6,29.79,West,270,1.0,0.0,86,0.00,,CLR,-99.99,VWS V14.01,2013-06-14 06:35:00,
2013-06-14 02:40:00,52.7,48.6,29.78,West,270,1.0,0.0,86,0.00,,CLR,-99.99,VWS V14.01,2013-06-14 06:40:00,
2013-06-14 02:45:00,52.5,48.4,29.78,West,270,1.0,0.0,86,0.00,,CLR,-99.99,VWS V14.01,2013-06-14 06:45:00,
2013-06-14 02:50:00,52.5,48.4,29.79,West,270,1.0,0.0,86,0.00,,CLR,-99.99,VWS V14.01,2013-06-14 06:50:00,
2013-06-14 02:55:00,52.5,48.4,29.78,West,270,1.0,0.0,86,0.00,,CLR,-99.99,VWS V14.01,2013-06-14 06:55:00,
2013-06-14 03:00:00,52.5,48.4,29.78,West,270,1.0,0.0,86,0.00,,CLR,-99.99,VWS V14.01,2013-06-14 07:00:00,
2013-06-14 03:05:00,52.3,48.2,29.78,West,270,1.0,0.0,86,0.00,,CLR,-99.99,VWS V14.01,2013-06-14 07:05:00,
2013-06-14 03:11:00,52.3,48.5,29.78,West,270,1.0,0.0,87,0.00,,CLR,-99.99,VWS V14.01,2013-06-14 07:11:00,
2013-06-14 03:17:00,52.1,48.4,29.78,West,270,1.0,0.0,87,0.00,,CLR,-99.99,VWS V14.01,2013-06-14 07:17:00,
2013-06-14 03:23:00,52.1,48.4,29.79,West,270,1.0,0.0,87,0.00,,CLR,-99.99,VWS V14.01,2013-06-14 07:23:00,
2013-06-14 03:29:00,51.9,48.2,29.79,West,270,1.0,0.0,87,0.00,,CLR,-99.99,VWS V14.01,2013-06-14 07:29:00,
2013-06-14 03:35:00,51.9,48.2,29.79,West,270,1.0,0.0,87,0.00,,CLR,-99.99,VWS V14.01,2013-06-14 07:35:00,
2013-06-14 03:40:00,51.9,48.2,29.79,West,270,1.0,0.0,87,0.00,,CLR,-99.99,VWS V14.01,2013-06-14 07:40:00,
2013-06-14 03:45:00,51.8,48.1,29.79,West,270,1.0,0.0,87,0.00,,CLR,-99.99,VWS V14.01,2013-06-14 07:45:00,
2013-06-14 03:50:00,51.6,47.9,29.78,West,270,1.0,0.0,87,0.00,,CLR,-99.99,VWS V14.01,2013-06-14 07:50:00,
2013-06-14 03:55:00,51.6,47.9,29.78,West,270,1.0,0.0,87,0.00,,CLR,-99.99,VWS V14.01,2013-06-14 07:55:00,
2013-06-14 04:00:00,51.6,48.2,29.79,West,270,1.0,0.0,88,0.00,,CLR,-99.99,VWS V14.01,2013-06-14 08:00:00,
2013-06-14 04:06:00,51.4,48.0,29.79,West,270,1.0,0.0,88,0.00,,CLR,-99.99,VWS V14.01,2013-06-14 08:06:00,
2013-06-14 04:11:00,51.4,48.0,29.79,West,270,1.0,0.0,88,0.00,,CLR,-99.99,VWS V14.01,2013-06-14 08:11:00,
2013-06-14 04:17:00,51.2,47.8,29.79,West,270,1.0,0.0,88,0.00,,CLR,-99.99,VWS V14.01,2013-06-14 08:17:00,
2013-06-14 04:23:00,51.2,47.8,29.79,West,270,1.0,0.0,88,0.00,,CLR,-99.99,VWS V14.01,2013-06-14 08:23:00,
2013-06-14 04:29:00,51.0,47.6,29.79,West,270,1.0,0.0,88,0.00,,CLR,-99.99,VWS V14.01,2013-06-14 08:29:00,
2013-06-14 04:35:00,51.0,47.6,29.79,West,270,1.0,0.0,88,0.00,,CLR,-99.99,VWS V14.01,2013-06-14 08:35:00,
2013-06-14 04:40:00,51.0,47.6,29.79,West,270,1.0,0.0,88,0.00,,CLR,-99.99,VWS V14.01,2013-06-14 08:40:00,
2013-06-14 04:45:00,50.9,47.5,29.79,West,270,1.0,0.0,88,0.00,,CLR,-99.99,VWS V14.01,2013-06-14 08:45:00,
2013-06-14 04:50:00,50.9,47.5,29.80,West,270,1.0,0.0,88,0.00,,CLR,-99.99,VWS V14.01,2013-06-14 08:50:00,
2013-06-14 04:55:00,50.9,47.8,29.80,West,270,1.0,0.0,89,0.00,,CLR,-99.99,VWS V14.01,2013-06-14 08:55:00,
2013-06-14 05:00:00,50.9,47.8,29.80,West,270,1.0,0.0,89,0.00,,CLR,-99.99,VWS V14.01,2013-06-14 09:00:00,
2013-06-14 05:06:00,50.9,47.8,29.80,West,270,1.0,0.0,89,0.00,,CLR,-99.99,VWS V14.01,2013-06-14 09:06:00,
2013-06-14 05:12:00,50.7,47.6,29.80,West,270,1.0,0.0,89,0.00,,CLR,-99.99,VWS V14.01,2013-06-14 09:12:00,
2013-06-14 05:18:00,50.9,47.8,29.80,West,270,1.0,0.0,89,0.00,,CLR,-99.99,VWS V14.01,2013-06-14 09:18:00,
2013-06-14 05:24:00,50.7,47.6,29.81,West,270,1.0,0.0,89,0.00,,CLR,-99.99,VWS V14.01,2013-06-14 09:24:00,
2013-06-14 05:30:00,50.7,47.6,29.81,West,270,1.0,0.0,89,0.00,,CLR,-99.99,VWS V14.01,2013-06-14 09:30:00,
2013-06-14 05:35:00,50.7,47.3,29.81,West,270,1.0,0.0,88,0.00,,CLR,-99.99,VWS V14.01,2013-06-14 09:35:00,
2013-06-14 05:40:00,50.7,47.3,29.81,West,270,1.0,0.0,88,0.00,,CLR,-99.99,VWS V14.01,2013-06-14 09:40:00,
2013-06-14 05:45:00,50.7,47.3,29.81,West,270,1.0,0.0,88,0.00,,CLR,-99.99,VWS V14.01,2013-06-14 09:45:00,
2013-06-14 05:50:00,51.0,47.9,29.81,West,270,1.0,0.0,89,0.00,,CLR,-99.99,VWS V14.01,2013-06-14 09:50:00,
2013-06-14 05:55:00,51.4,48.3,29.81,West,270,1.0,0.0,89,0.00,,CLR,-99.99,VWS V14.01,2013-06-14 09:55:00,
2013-06-14 06:00:00,51.4,48.3,29.81,West,270,1.0,0.0,89,0.00,,CLR,-99.99,VWS V14.01,2013-06-14 10:00:00,
2013-06-14 06:05:00,51.6,48.5,29.81,West,270,1.0,0.0,89,0.00,,CLR,-99.99,VWS V14.01,2013-06-14 10:05:00,
2013-06-14 06:11:00,51.6,48.5,29.81,West,270,1.0,0.0,89,0.00,,CLR,-99.99,VWS V14.01,2013-06-14 10:11:00,
2013-06-14 06:17:00,51.6,48.5,29.81,West,270,1.0,0.0,89,0.00,,CLR,-99.99,VWS V14.01,2013-06-14 10:17:00,
2013-06-14 06:23:00,51.8,48.7,29.81,West,270,1.0,0.0,89,0.00,,CLR,-99.99,VWS V14.01,2013-06-14 10:23:00,
2013-06-14 06:29:00,51.9,48.8,29.81,West,270,1.0,0.0,89,0.00,,CLR,-99.99,VWS V14.01,2013-06-14 10:29:00,
2013-06-14 06:35:00,52.1,49.0,29.80,West,270,1.0,0.0,89,0.00,,CLR,-99.99,VWS V14.01,2013-06-14 10:35:00,
2013-06-14 06:40:00,52.5,49.4,29.80,West,270,1.0,0.0,89,0.00,,CLR,-99.99,VWS V14.01,2013-06-14 10:40:00,
2013-06-14 06:45:00,52.8,49.7,29.80,West,270,1.0,0.0,89,0.00,,CLR,-99.99,VWS V14.01,2013-06-14 10:45:00,
2013-06-14 06:50:00,53.2,50.0,29.80,West,270,1.0,0.0,89,0.00,,CLR,-99.99,VWS V14.01,2013-06-14 10:50:00,
2013-06-14 06:55:00,53.4,50.2,29.80,West,270,1.0,0.0,89,0.00,,CLR,-99.99,VWS V14.01,2013-06-14 10:55:00,
2013-06-14 07:00:00,53.7,50.5,29.80,West,270,1.0,0.0,89,0.00,,CLR,-99.99,VWS V14.01,2013-06-14 11:00:00,
2013-06-14 07:06:00,54.1,50.9,29.80,West,270,1.0,0.0,89,0.00,,CLR,-99.99,VWS V14.01,2013-06-14 11:06:00,
2013-06-14 07:12:00,54.3,50.8,29.81,West,270,1.0,0.0,88,0.00,,CLR,-99.99,VWS V14.01,2013-06-14 11:12:00,
2013-06-14 07:18:00,54.5,51.0,29.81,West,270,1.0,0.0,88,0.00,,CLR,-99.99,VWS V14.01,2013-06-14 11:18:00,
2013-06-14 07:23:00,54.8,51.3,29.81,West,270,1.0,0.0,88,0.00,,CLR,-99.99,VWS V14.01,2013-06-14 11:23:00,
2013-06-14 07:29:00,55.2,51.7,29.81,West,270,1.0,0.0,88,0.00,,CLR,-99.99,VWS V14.01,2013-06-14 11:29:00,
2013-06-14 07:35:00,55.2,51.7,29.81,West,270,1.0,0.0,88,0.00,,CLR,-99.99,VWS V14.01,2013-06-14 11:35:00,
2013-06-14 07:40:00,55.2,51.7,29.81,West,270,1.0,0.0,88,0.00,,CLR,-99.99,VWS V14.01,2013-06-14 11:40:00,
2013-06-14 07:45:00,55.4,51.6,29.81,West,270,1.0,0.0,87,0.00,,CLR,-99.99,VWS V14.01,2013-06-14 11:45:00,
2013-06-14 07:50:00,55.9,52.4,29.82,West,270,1.0,0.0,88,0.00,,CLR,-99.99,VWS V14.01,2013-06-14 11:50:00,
2013-06-14 07:56:00,56.4,52.6,29.81,West,270,1.0,0.0,87,0.00,,CLR,-99.99,VWS V14.01,2013-06-14 11:56:00,
2013-06-14 08:02:00,57.0,52.9,29.82,West,270,1.0,0.0,86,0.00,,CLR,-99.99,VWS V14.01,2013-06-14 12:02:00,
2013-06-14 08:08:00,57.9,53.4,29.81,West,270,1.0,0.0,85,0.00,,CLR,-99.99,VWS V14.01,2013-06-14 12:08:00,
2013-06-14 08:14:00,58.2,53.4,29.81,West,270,1.0,0.0,84,0.00,,CLR,-99.99,VWS V14.01,2013-06-14 12:14:00,
2013-06-14 08:20:00,58.2,53.4,29.82,West,270,1.0,0.0,84,0.00,,CLR,-99.99,VWS V14.01,2013-06-14 12:20:00,
2013-06-14 08:25:00,59.0,53.8,29.82,West,270,1.0,0.0,83,0.00,,CLR,-99.99,VWS V14.01,2013-06-14 12:25:00,
2013-06-14 08:30:00,60.0,53.8,29.82,West,270,1.0,0.0,80,0.00,,CLR,-99.99,VWS V14.01,2013-06-14 12:30:00,
2013-06-14 08:35:00,60.0,53.5,29.82,West,270,1.0,0.0,79,0.00,,CLR,-99.99,VWS V14.01,2013-06-14 12:35:00,
2013-06-14 08:40:00,60.0,53.5,29.82,West,270,1.0,0.0,79,0.00,,CLR,-99.99,VWS V14.01,2013-06-14 12:40:00,
2013-06-14 08:45:00,60.0,53.1,29.82,West,270,1.0,0.0,78,0.00,,CLR,-99.99,VWS V14.01,2013-06-14 12:45:00,
2013-06-14 08:50:00,59.9,53.0,29.82,West,270,1.0,0.0,78,0.00,,CLR,-99.99,VWS V14.01,2013-06-14 12:50:00,
2013-06-14 08:55:00,60.0,53.1,29.82,West,270,1.0,0.0,78,0.00,,CLR,-99.99,VWS V14.01,2013-06-14 12:55:00,
2013-06-14 09:00:00,61.1,53.8,29.83,West,270,1.0,0.0,77,0.00,,CLR,-99.99,VWS V14.01,2013-06-14 13:00:00,
2013-06-14 09:05:00,61.7,54.1,29.82,West,270,1.0,0.0,76,0.00,,CLR,-99.99,VWS V14.01,2013-06-14 13:05:00,
2013-06-14 09:11:00,62.4,54.4,29.83,West,270,1.0,0.0,75,0.00,,CLR,-99.99,VWS V14.01,2013-06-14 13:11:00,
2013-06-14 09:17:00,63.3,54.9,29.83,West,270,1.0,0.0,74,0.00,,CLR,-99.99,VWS V14.01,2013-06-14 13:17:00,
2013-06-14 09:23:00,64.2,55.8,29.83,West,270,1.0,0.0,74,0.00,,CLR,-99.99,VWS V14.01,2013-06-14 13:23:00,
2013-06-14 09:29:00,64.2,54.2,29.83,West,270,1.0,0.0,70,0.00,,CLR,-99.99,VWS V14.01,2013-06-14 13:29:00,
2013-06-14 09:35:00,64.7,54.7,29.82,West,270,1.0,0.0,70,0.00,,CLR,-99.99,VWS V14.01,2013-06-14 13:35:00,
2013-06-14 09:40:00,64.5,54.9,29.83,West,270,1.0,0.0,71,0.00,,CLR,-99.99,VWS V14.01,2013-06-14 13:40:00,
2013-06-14 09:45:00,64.9,55.7,29.83,West,270,1.0,0.0,72,0.00,,CLR,-99.99,VWS V14.01,2013-06-14 13:45:00,
2013-06-14 09:50:00,64.9,54.9,29.83,West,270,1.0,0.0,70,0.00,,CLR,-99.99,VWS V14.01,2013-06-14 13:50:00,
2013-06-14 09:55:00,65.1,55.1,29.82,West,270,1.0,0.0,70,0.00,,CLR,-99.99,VWS V14.01,2013-06-14 13:55:00,
2013-06-14 10:00:00,65.1,54.7,29.83,West,270,1.0,0.0,69,0.00,,CLR,-99.99,VWS V14.01,2013-06-14 14:00:00,
2013-06-14 10:06:00,65.4,55.8,29.83,West,270,1.0,0.0,71,0.00,,CLR,-99.99,VWS V14.01,2013-06-14 14:06:00,
2013-06-14 10:12:00,66.0,55.2,29.83,West,270,1.0,0.0,68,0.00,,CLR,-99.99,VWS V14.01,2013-06-14 14:12:00,
2013-06-14 10:18:00,66.0,55.5,29.83,West,270,1.0,0.0,69,0.00,,CLR,-99.99,VWS V14.01,2013-06-14 14:18:00,
2013-06-14 10:24:00,66.7,56.2,29.83,West,270,1.0,0.0,69,0.00,,CLR,-99.99,VWS V14.01,2013-06-14 14:24:00,
2013-06-14 10:30:00,67.4,56.5,29.83,West,270,1.0,0.0,68,0.00,,CLR,-99.99,VWS V14.01,2013-06-14 14:30:00,
2013-06-14 10:35:00,67.6,55.8,29.83,West,270,1.0,0.0,66,0.00,,CLR,-99.99,VWS V14.01,2013-06-14 14:35:00,
2013-06-14 10:40:00,67.8,55.6,29.83,West,270,1.0,0.0,65,0.00,,CLR,-99.99,VWS V14.01,2013-06-14 14:40:00,
2013-06-14 10:45:00,67.8,55.2,29.83,West,270,1.0,0.0,64,0.00,,CLR,-99.99,VWS V14.01,2013-06-14 14:45:00,
2013-06-14 10:50:00,67.2,55.5,29.83,West,270,1.0,0.0,66,0.00,,CLR,-99.99,VWS V14.01,2013-06-14 14:50:00,
2013-06-14 10:55:00,68.1,55.5,29.83,West,270,1.0,0.0,64,0.00,,CLR,-99.99,VWS V14.01,2013-06-14 14:55:00,
2013-06-14 11:00:00,68.5,55.9,29.83,West,270,1.0,0.0,64,0.00,,CLR,-99.99,VWS V14.01,2013-06-14 15:00:00,
2013-06-14 11:05:00,69.0,55.0,29.83,West,270,1.0,0.0,61,0.00,,CLR,-99.99,VWS V14.01,2013-06-14 15:05:00,
2013-06-14 11:11:00,69.2,54.7,29.83,West,270,1.0,0.0,60,0.00,,CLR,-99.99,VWS V14.01,2013-06-14 15:11:00,
2013-06-14 11:17:00,69.0,54.5,29.83,West,270,1.0,0.0,60,0.00,,CLR,-99.99,VWS V14.01,2013-06-14 15:17:00,
2013-06-14 11:23:00,69.4,54.9,29.83,West,270,1.0,0.0,60,0.00,,CLR,-99.99,VWS V14.01,2013-06-14 15:23:00,
2013-06-14 11:29:00,69.6,54.7,29.83,West,270,1.0,0.0,59,0.00,,CLR,-99.99,VWS V14.01,2013-06-14 15:29:00,
2013-06-14 11:35:00,70.5,54.5,29.83,West,270,1.0,0.0,57,0.00,,CLR,-99.99,VWS V14.01,2013-06-14 15:35:00,
2013-06-14 11:40:00,70.3,52.9,29.83,West,270,1.0,0.0,54,0.00,,CLR,-99.99,VWS V14.01,2013-06-14 15:40:00,
2013-06-14 11:45:00,69.9,52.0,29.83,West,270,1.0,0.0,53,0.00,,CLR,-99.99,VWS V14.01,2013-06-14 15:45:00,
2013-06-14 11:50:00,70.3,52.4,29.83,West,270,1.0,0.0,53,0.00,,CLR,-99.99,VWS V14.01,2013-06-14 15:50:00,
2013-06-14 11:55:00,70.3,50.8,29.82,West,270,1.0,0.0,50,0.00,,CLR,-99.99,VWS V14.01,2013-06-14 15:55:00,
2013-06-14 12:00:00,70.3,49.1,29.83,West,270,1.0,0.0,47,0.00,,CLR,-99.99,VWS V14.01,2013-06-14 16:00:00,
2013-06-14 12:06:00,70.5,48.2,29.83,West,270,1.0,0.0,45,0.00,,CLR,-99.99,VWS V14.01,2013-06-14 16:06:00,
2013-06-14 12:12:00,70.5,49.3,29.83,West,270,1.0,0.0,47,0.00,,CLR,-99.99,VWS V14.01,2013-06-14 16:12:00,
2013-06-14 12:17:00,70.3,48.0,29.82,West,270,1.0,0.0,45,0.00,,CLR,-99.99,VWS V14.01,2013-06-14 16:17:00,
2013-06-14 12:23:00,70.8,49.6,29.82,West,270,1.0,0.0,47,0.00,,CLR,-99.99,VWS V14.01,2013-06-14 16:23:00,
2013-06-14 12:29:00,71.4,51.3,29.83,West,270,1.0,0.0,49,0.00,,CLR,-99.99,VWS V14.01,2013-06-14 16:29:00,
2013-06-14 12:35:00,71.2,50.5,29.83,West,270,1.0,0.0,48,0.00,,CLR,-99.99,VWS V14.01,2013-06-14 16:35:00,
2013-06-14 12:40:00,71.4,50.7,29.82,West,270,1.0,0.0,48,0.00,,CLR,-99.99,VWS V14.01,2013-06-14 16:40:00,
2013-06-14 12:45:00,71.7,52.1,29.82,West,270,1.0,0.0,50,0.00,,CLR,-99.99,VWS V14.01,2013-06-14 16:45:00,
2013-06-14 12:50:00,71.7,50.4,29.82,West,270,1.0,0.0,47,0.00,,CLR,-99.99,VWS V14.01,2013-06-14 16:50:00,
2013-06-14 12:55:00,71.4,50.1,29.82,West,270,1.0,0.0,47,0.00,,CLR,-99.99,VWS V14.01,2013-06-14 16:55:00,
2013-06-14 13:00:00,71.7,51.0,29.82,West,270,1.0,0.0,48,0.00,,CLR,-99.99,VWS V14.01,2013-06-14 17:00:00,
2013-06-14 13:06:00,71.6,50.9,29.82,West,270,1.0,0.0,48,0.00,,CLR,-99.99,VWS V14.01,2013-06-14 17:06:00,
2013-06-14 13:12:00,71.9,50.0,29.82,West,270,1.0,0.0,46,0.00,,CLR,-99.99,VWS V14.01,2013-06-14 17:12:00,
2013-06-14 13:18:00,72.3,51.5,29.82,West,270,1.0,0.0,48,0.00,,CLR,-99.99,VWS V14.01,2013-06-14 17:18:00,
2013-06-14 13:24:00,72.3,52.1,29.82,West,270,1.0,0.0,49,0.00,,CLR,-99.99,VWS V14.01,2013-06-14 17:24:00,
2013-06-14 13:30:00,73.2,51.8,29.82,West,270,1.0,0.0,47,0.00,,CLR,-99.99,VWS V14.01,2013-06-14 17:30:00,
2013-06-14 13:35:00,73.2,52.4,29.83,West,270,1.0,0.0,48,0.00,,CLR,-99.99,VWS V14.01,2013-06-14 17:35:00,
2013-06-14 13:40:00,73.5,50.9,29.83,West,270,1.0,0.0,45,0.00,,CLR,-99.99,VWS V14.01,2013-06-14 17:40:00,
2013-06-14 13:45:00,74.1,52.0,29.83,West,270,1.0,0.0,46,0.00,,CLR,-99.99,VWS V14.01,2013-06-14 17:45:00,
2013-06-14 13:50:00,74.4,52.9,29.83,West,270,1.0,0.0,47,0.00,,CLR,-99.99,VWS V14.01,2013-06-14 17:50:00,
2013-06-14 13:55:00,73.4,52.0,29.83,West,270,1.0,0.0,47,0.00,,CLR,-99.99,VWS V14.01,2013-06-14 17:55:00,
2013-06-14 14:00:00,71.7,52.1,29.83,West,270,1.0,0.0,50,0.00,,CLR,-99.99,VWS V14.01,2013-06-14 18:00:00,
2013-06-14 14:05:00,72.6,51.2,29.83,West,270,1.0,0.0,47,0.00,,CLR,-99.99,VWS V14.01,2013-06-14 18:05:00,
2013-06-14 14:11:00,72.1,51.3,29.83,West,270,1.0,0.0,48,0.00,,CLR,-99.99,VWS V14.01,2013-06-14 18:11:00,
2013-06-14 14:17:00,73.5,51.5,29.83,West,270,1.0,0.0,46,0.00,,CLR,-99.99,VWS V14.01,2013-06-14 18:17:00,
2013-06-14 14:23:00,73.0,52.2,29.83,West,270,1.0,0.0,48,0.00,,CLR,-99.99,VWS V14.01,2013-06-14 18:23:00,
2013-06-14 14:29:00,72.5,52.8,29.82,West,270,1.0,0.0,50,0.00,,CLR,-99.99,VWS V14.01,2013-06-14 18:29:00,
2013-06-14 14:35:00,73.5,50.3,29.83,West,270,1.0,0.0,44,0.00,,CLR,-99.99,VWS V14.01,2013-06-14 18:35:00,
2013-06-14 14:40:00,74.1,52.6,29.82,West,270,1.0,0.0,47,0.00,,CLR,-99.99,VWS V14.01,2013-06-14 18:40:00,
2013-06-14 14:45:00,73.2,51.2,29.83,West,270,1.0,0.0,46,0.00,,CLR,-99.99,VWS V14.01,2013-06-14 18:45:00,
2013-06-14 14:50:00,73.5,52.6,29.83,West,270,1.0,0.0,48,0.00,,CLR,-99.99,VWS V14.01,2013-06-14 18:50:00,
2013-06-14 14:55:00,73.5,50.9,29.82,West,270,1.0,0.0,45,0.00,,CLR,-99.99,VWS V14.01,2013-06-14 18:55:00,
2013-06-14 15:00:00,74.1,52.0,29.82,West,270,1.0,0.0,46,0.00,,CLR,-99.99,VWS V14.01,2013-06-14 19:00:00,
2013-06-14 15:05:00,74.1,50.8,29.82,West,270,1.0,0.0,44,0.00,,CLR,-99.99,VWS V14.01,2013-06-14 19:05:00,
2013-06-14 15:10:00,72.5,51.2,29.82,West,270,1.0,0.0,47,0.00,,CLR,-99.99,VWS V14.01,2013-06-14 19:10:00,
2013-06-14 15:15:00,72.1,51.9,29.82,West,270,1.0,0.0,49,0.00,,CLR,-99.99,VWS V14.01,2013-06-14 19:15:00,
2013-06-14 15:20:00,73.2,50.6,29.82,West,270,1.0,0.0,45,0.00,,CLR,-99.99,VWS V14.01,2013-06-14 19:20:00,
2013-06-14 15:25:00,74.4,51.7,29.82,West,270,1.0,0.0,45,0.00,,CLR,-99.99,VWS V14.01,2013-06-14 19:25:00,
2013-06-14 15:30:00,74.3,51.6,29.82,West,270,1.0,0.0,45,0.00,,CLR,-99.99,VWS V14.01,2013-06-14 19:30:00,
2013-06-14 15:35:00,73.2,50.6,29.82,West,270,1.0,0.0,45,0.00,,CLR,-99.99,VWS V14.01,2013-06-14 19:35:00,
2013-06-14 15:40:00,73.9,51.2,29.82,West,270,1.0,0.0,45,0.00,,CLR,-99.99,VWS V14.01,2013-06-14 19:40:00,
2013-06-14 15:45:00,74.4,50.5,29.82,West,270,1.0,0.0,43,0.00,,CLR,-99.99,VWS V14.01,2013-06-14 19:45:00,
2013-06-14 15:50:00,73.7,51.7,29.82,West,270,1.0,0.0,46,0.00,,CLR,-99.99,VWS V14.01,2013-06-14 19:50:00,
2013-06-14 15:55:00,73.5,51.5,29.82,West,270,1.0,0.0,46,0.00,,CLR,-99.99,VWS V14.01,2013-06-14 19:55:00,
2013-06-14 16:00:00,73.2,51.8,29.81,West,270,1.0,0.0,47,0.00,,CLR,-99.99,VWS V14.01,2013-06-14 20:00:00,
2013-06-14 16:05:00,73.4,53.1,29.81,West,270,1.0,0.0,49,0.00,,CLR,-99.99,VWS V14.01,2013-06-14 20:05:00,
2013-06-14 16:10:00,73.5,53.2,29.81,West,270,1.0,0.0,49,0.00,,CLR,-99.99,VWS V14.01,2013-06-14 20:10:00,
2013-06-14 16:15:00,73.9,53.6,29.81,West,270,1.0,0.0,49,0.00,,CLR,-99.99,VWS V14.01,2013-06-14 20:15:00,
2013-06-14 16:20:00,74.3,54.5,29.81,West,270,1.0,0.0,50,0.00,,CLR,-99.99,VWS V14.01,2013-06-14 20:20:00,
2013-06-14 16:25:00,73.7,53.4,29.82,West,270,1.0,0.0,49,0.00,,CLR,-99.99,VWS V14.01,2013-06-14 20:25:00,
2013-06-14 16:30:00,72.6,52.4,29.82,West,270,1.0,0.0,49,0.00,,CLR,-99.99,VWS V14.01,2013-06-14 20:30:00,
2013-06-14 16:35:00,72.6,52.4,29.82,West,270,1.0,0.0,49,0.00,,CLR,-99.99,VWS V14.01,2013-06-14 20:35:00,
2013-06-14 16:40:00,73.0,52.2,29.82,West,270,1.0,0.0,48,0.00,,CLR,-99.99,VWS V14.01,2013-06-14 20:40:00,
2013-06-14 16:45:00,72.6,52.4,29.82,West,270,1.0,0.0,49,0.00,,CLR,-99.99,VWS V14.01,2013-06-14 20:45:00,
2013-06-14 16:50:00,72.3,51.5,29.82,West,270,1.0,0.0,48,0.00,,CLR,-99.99,VWS V14.01,2013-06-14 20:50:00,
2013-06-14 16:55:00,71.6,50.9,29.82,West,270,1.0,0.0,48,0.00,,CLR,-99.99,VWS V14.01,2013-06-14 20:55:00,
2013-06-14 17:00:00,71.9,52.3,29.82,West,270,1.0,0.0,50,0.00,,CLR,-99.99,VWS V14.01,2013-06-14 21:00:00,
2013-06-14 17:05:00,72.1,51.9,29.82,West,270,1.0,0.0,49,0.00,,CLR,-99.99,VWS V14.01,2013-06-14 21:05:00,
2013-06-14 17:10:00,71.9,52.3,29.82,West,270,1.0,0.0,50,0.00,,CLR,-99.99,VWS V14.01,2013-06-14 21:10:00,
2013-06-14 17:15:00,72.1,51.9,29.83,West,270,1.0,0.0,49,0.00,,CLR,-99.99,VWS V14.01,2013-06-14 21:15:00,
2013-06-14 17:20:00,71.9,51.7,29.83,West,270,1.0,0.0,49,0.00,,CLR,-99.99,VWS V14.01,2013-06-14 21:20:00,
2013-06-14 17:25:00,72.3,52.6,29.83,West,270,1.0,0.0,50,0.00,,CLR,-99.99,VWS V14.01,2013-06-14 21:25:00,
2013-06-14 17:30:00,72.1,52.5,29.83,West,270,1.0,0.0,50,0.00,,CLR,-99.99,VWS V14.01,2013-06-14 21:30:00,
2013-06-14 17:35:00,71.9,52.3,29.83,West,270,1.0,0.0,50,0.00,,CLR,-99.99,VWS V14.01,2013-06-14 21:35:00,
2013-06-14 17:40:00,71.4,51.8,29.83,West,270,1.0,0.0,50,0.00,,CLR,-99.99,VWS V14.01,2013-06-14 21:40:00,
2013-06-14 17:45:00,71.9,52.3,29.83,West,270,1.0,0.0,50,0.00,,CLR,-99.99,VWS V14.01,2013-06-14 21:45:00,
2013-06-14 17:50:00,71.9,52.3,29.83,West,270,1.0,0.0,50,0.00,,CLR,-99.99,VWS V14.01,2013-06-14 21:50:00,
2013-06-14 17:55:00,71.2,51.6,29.83,West,270,1.0,0.0,50,0.00,,CLR,-99.99,VWS V14.01,2013-06-14 21:55:00,
2013-06-14 18:00:00,70.8,51.3,29.83,West,270,1.0,0.0,50,0.00,,CLR,-99.99,VWS V14.01,2013-06-14 22:00:00,
2013-06-14 18:05:00,70.8,51.3,29.83,West,270,1.0,0.0,50,0.00,,CLR,-99.99,VWS V14.01,2013-06-14 22:05:00,
2013-06-14 18:10:00,70.7,51.7,29.83,West,270,1.0,0.0,51,0.00,,CLR,-99.99,VWS V14.01,2013-06-14 22:10:00,
2013-06-14 18:15:00,70.5,51.0,29.83,West,270,1.0,0.0,50,0.00,,CLR,-99.99,VWS V14.01,2013-06-14 22:15:00,
2013-06-14 18:21:00,70.3,51.3,29.83,West,270,1.0,0.0,51,0.00,,CLR,-99.99,VWS V14.01,2013-06-14 22:21:00,
2013-06-14 18:26:00,70.3,51.3,29.83,West,270,1.0,0.0,51,0.00,,CLR,-99.99,VWS V14.01,2013-06-14 22:26:00,
2013-06-14 18:31:00,70.3,51.9,29.84,West,270,1.0,0.0,52,0.00,,CLR,-99.99,VWS V14.01,2013-06-14 22:31:00,
2013-06-14 18:36:00,69.9,52.0,29.84,West,270,1.0,0.0,53,0.00,,CLR,-99.99,VWS V14.01,2013-06-14 22:36:00,
2013-06-14 18:41:00,69.6,51.7,29.84,West,270,1.0,0.0,53,0.00,,CLR,-99.99,VWS V14.01,2013-06-14 22:41:00,
2013-06-14 18:47:00,69.6,52.2,29.84,West,270,1.0,0.0,54,0.00,,CLR,-99.99,VWS V14.01,2013-06-14 22:47:00,
2013-06-14 18:53:00,69.4,52.0,29.84,West,270,1.0,0.0,54,0.00,,CLR,-99.99,VWS V14.01,2013-06-14 22:53:00,
2013-06-14 18:59:00,68.5,51.7,29.84,West,270,1.0,0.0,55,0.00,,CLR,-99.99,VWS V14.01,2013-06-14 22:59:00,
2013-06-14 19:05:00,68.1,51.8,29.84,West,270,1.0,0.0,56,0.00,,CLR,-99.99,VWS V14.01,2013-06-14 23:05:00,
2013-06-14 19:10:00,68.0,52.2,29.85,West,270,1.0,0.0,57,0.00,,CLR,-99.99,VWS V14.01,2013-06-14 23:10:00,
2013-06-14 19:15:00,67.8,52.0,29.85,West,270,1.0,0.0,57,0.00,,CLR,-99.99,VWS V14.01,2013-06-14 23:15:00,
2013-06-14 19:20:00,67.8,52.0,29.85,West,270,1.0,0.0,57,0.00,,CLR,-99.99,VWS V14.01,2013-06-14 23:20:00,
2013-06-14 19:25:00,67.6,51.8,29.85,West,270,1.0,0.0,57,0.00,,CLR,-99.99,VWS V14.01,2013-06-14 23:25:00,
2013-06-14 19:30:00,67.2,52.4,29.85,West,270,1.0,0.0,59,0.00,,CLR,-99.99,VWS V14.01,2013-06-14 23:30:00,
2013-06-14 19:35:00,66.9,52.6,29.85,West,270,1.0,0.0,60,0.00,,CLR,-99.99,VWS V14.01,2013-06-14 23:35:00,
2013-06-14 19:40:00,66.7,52.8,29.85,West,270,1.0,0.0,61,0.00,,CLR,-99.99,VWS V14.01,2013-06-14 23:40:00,
2013-06-14 19:45:00,66.7,52.8,29.85,West,270,1.0,0.0,61,0.00,,CLR,-99.99,VWS V14.01,2013-06-14 23:45:00,
2013-06-14 19:50:00,66.5,53.1,29.86,West,270,1.0,0.0,62,0.00,,CLR,-99.99,VWS V14.01,2013-06-14 23:50:00,
2013-06-14 19:55:00,66.3,52.5,29.86,West,270,1.0,0.0,61,0.00,,CLR,-99.99,VWS V14.01,2013-06-14 23:55:00,
2013-06-14 20:00:00,66.3,52.9,29.87,West,270,1.0,0.0,62,0.00,,CLR,-99.99,VWS V14.01,2013-06-15 00:00:00,
2013-06-14 20:06:00,65.8,53.3,29.86,West,270,1.0,0.0,64,0.00,,CLR,-99.99,VWS V14.01,2013-06-15 00:06:00,
2013-06-14 20:12:00,64.5,52.9,29.86,West,270,1.0,0.0,66,0.00,,CLR,-99.99,VWS V14.01,2013-06-15 00:12:00,
2013-06-14 20:18:00,64.0,53.6,29.86,West,270,1.0,0.0,69,0.00,,CLR,-99.99,VWS V14.01,2013-06-15 00:18:00,
2013-06-14 20:24:00,63.5,53.9,29.86,West,270,1.0,0.0,71,0.00,,CLR,-99.99,VWS V14.01,2013-06-15 00:24:00,
2013-06-14 20:29:00,62.6,53.5,29.86,West,270,1.0,0.0,72,0.00,,CLR,-99.99,VWS V14.01,2013-06-15 00:29:00,
2013-06-14 20:35:00,62.2,53.5,29.86,West,270,1.0,0.0,73,0.00,,CLR,-99.99,VWS V14.01,2013-06-15 00:35:00,
2013-06-14 20:40:00,61.7,53.0,29.86,West,270,1.0,0.0,73,0.00,,CLR,-99.99,VWS V14.01,2013-06-15 00:40:00,
2013-06-14 20:45:00,61.5,53.2,29.86,West,270,1.0,0.0,74,0.00,,CLR,-99.99,VWS V14.01,2013-06-15 00:45:00,
2013-06-14 20:50:00,61.1,52.8,29.86,West,270,1.0,0.0,74,0.00,,CLR,-99.99,VWS V14.01,2013-06-15 00:50:00,
2013-06-14 20:55:00,60.8,52.8,29.86,West,270,1.0,0.0,75,0.00,,CLR,-99.99,VWS V14.01,2013-06-15 00:55:00,
2013-06-14 21:00:00,60.6,52.6,29.86,West,270,1.0,0.0,75,0.00,,CLR,-99.99,VWS V14.01,2013-06-15 01:00:00,
2013-06-14 21:06:00,60.4,52.8,29.86,West,270,1.0,0.0,76,0.00,,CLR,-99.99,VWS V14.01,2013-06-15 01:06:00,
2013-06-14 21:12:00,60.0,52.4,29.87,West,270,1.0,0.0,76,0.00,,CLR,-99.99,VWS V14.01,2013-06-15 01:12:00,
2013-06-14 21:18:00,59.9,52.3,29.87,West,270,1.0,0.0,76,0.00,,CLR,-99.99,VWS V14.01,2013-06-15 01:18:00,
2013-06-14 21:24:00,59.9,52.3,29.88,West,270,1.0,0.0,76,0.00,,CLR,-99.99,VWS V14.01,2013-06-15 01:24:00,
2013-06-14 21:30:00,59.7,52.1,29.88,West,270,1.0,0.0,76,0.00,,CLR,-99.99,VWS V14.01,2013-06-15 01:30:00,
2013-06-14 21:35:00,59.5,51.9,29.88,West,270,1.0,0.0,76,0.00,,CLR,-99.99,VWS V14.01,2013-06-15 01:35:00,
2013-06-14 21:40:00,59.1,51.9,29.88,West,270,1.0,0.0,77,0.00,,CLR,-99.99,VWS V14.01,2013-06-15 01:40:00,
2013-06-14 21:45:00,59.1,51.5,29.88,West,270,1.0,0.0,76,0.00,,CLR,-99.99,VWS V14.01,2013-06-15 01:45:00,
2013-06-14 21:50:00,58.8,51.3,29.89,West,270,1.0,0.0,76,0.00,,CLR,-99.99,VWS V14.01,2013-06-15 01:50:00,
2013-06-14 21:55:00,58.8,50.9,29.89,West,270,1.0,0.0,75,0.00,,CLR,-99.99,VWS V14.01,2013-06-15 01:55:00,
2013-06-14 22:00:00,58.8,50.5,29.88,West,270,1.0,0.0,74,0.00,,CLR,-99.99,VWS V14.01,2013-06-15 02:00:00,
2013-06-14 22:05:00,58.8,50.9,29.89,West,270,1.0,0.0,75,0.00,,CLR,-99.99,VWS V14.01,2013-06-15 02:05:00,
2013-06-14 22:11:00,58.6,50.3,29.89,West,270,1.0,0.0,74,0.00,,CLR,-99.99,VWS V14.01,2013-06-15 02:11:00,
2013-06-14 22:17:00,58.8,49.8,29.89,West,270,1.0,0.0,72,0.00,,CLR,-99.99,VWS V14.01,2013-06-15 02:17:00,
2013-06-14 22:23:00,58.8,49.0,29.89,West,270,1.0,0.0,70,0.00,,CLR,-99.99,VWS V14.01,2013-06-15 02:23:00,
2013-06-14 22:29:00,58.2,48.5,29.89,West,270,1.0,0.0,70,0.00,,CLR,-99.99,VWS V14.01,2013-06-15 02:29:00,
2013-06-14 22:35:00,58.1,48.4,29.89,West,270,1.0,0.0,70,0.00,,CLR,-99.99,VWS V14.01,2013-06-15 02:35:00,
2013-06-14 22:40:00,58.6,46.9,29.89,West,270,1.0,0.0,65,0.00,,CLR,-99.99,VWS V14.01,2013-06-15 02:40:00,
2013-06-14 22:45:00,58.2,46.5,29.90,West,270,1.0,0.0,65,0.00,,CLR,-99.99,VWS V14.01,2013-06-15 02:45:00,
2013-06-14 22:50:00,57.9,47.0,29.89,West,270,1.0,0.0,67,0.00,,CLR,-99.99,VWS V14.01,2013-06-15 02:50:00,
2013-06-14 22:55:00,57.0,46.6,29.89,West,270,1.0,0.0,68,0.00,,CLR,-99.99,VWS V14.01,2013-06-15 02:55:00,
2013-06-14 23:00:00,56.8,46.8,29.90,West,270,1.0,0.0,69,0.00,,CLR,-99.99,VWS V14.01,2013-06-15 03:00:00,
2013-06-14 23:06:00,56.4,46.4,29.90,West,270,1.0,0.0,69,0.00,,CLR,-99.99,VWS V14.01,2013-06-15 03:06:00,
2013-06-14 23:12:00,56.1,46.1,29.90,West,270,1.0,0.0,69,0.00,,CLR,-99.99,VWS V14.01,2013-06-15 03:12:00,
2013-06-14 23:18:00,55.5,45.9,29.90,West,270,1.0,0.0,70,0.00,,CLR,-99.99,VWS V14.01,2013-06-15 03:18:00,
2013-06-14 23:24:00,55.2,45.6,29.90,West,270,1.0,0.0,70,0.00,,CLR,-99.99,VWS V14.01,2013-06-15 03:24:00,
2013-06-14 23:30:00,54.8,45.6,29.91,West,270,1.0,0.0,71,0.00,,CLR,-99.99,VWS V14.01,2013-06-15 03:30:00,
2013-06-14 23:35:00,54.5,45.3,29.90,West,270,1.0,0.0,71,0.00,,CLR,-99.99,VWS V14.01,2013-06-15 03:35:00,
2013-06-14 23:40:00,54.3,45.5,29.91,West,270,1.0,0.0,72,0.00,,CLR,-99.99,VWS V14.01,2013-06-15 03:40:00,
2013-06-14 23:45:00,54.1,45.3,29.91,West,270,1.0,0.0,72,0.00,,CLR,-99.99,VWS V14.01,2013-06-15 03:45:00,
2013-06-14 23:50:00,53.9,44.7,29.91,West,270,1.0,0.0,71,0.00,,CLR,-99.99,VWS V14.01,2013-06-15 03:50:00,
2013-06-14 23:55:00,53.7,44.5,29.91,West,270,1.0,0.0,71,0.00,,CLR,-99.99,VWS V14.01,2013-06-15 03:55:00,